createdAt,value
2022-10-24T00:01:26.755Z,18.65
2022-10-24T00:03:54.090Z,18.83
2022-10-24T00:06:22.043Z,19.42
2022-10-24T00:08:50.331Z,18.70
2022-10-24T00:11:23.306Z,19.10
2022-10-24T00:13:52.566Z,18.83
2022-10-24T00:16:20.395Z,19.20
2022-10-24T00:18:48.413Z,22.00
2022-10-24T00:21:17.962Z,19.67
2022-10-24T00:23:45.508Z,18.50
2022-10-24T00:26:13.880Z,20.30
2022-10-24T00:28:41.805Z,19.27
2022-10-24T00:31:16.218Z,18.98
2022-10-24T00:33:45.193Z,19.48
2022-10-24T00:36:19.905Z,19.00
2022-10-24T00:38:48.524Z,18.33
2022-10-24T00:41:19.162Z,18.85
2022-10-24T00:43:47.151Z,19.17
2022-10-24T00:46:18.019Z,20.13
2022-10-24T00:48:55.088Z,18.92
2022-10-24T00:51:28.878Z,19.30
2022-10-24T00:54:08.737Z,19.05
2022-10-24T00:56:44.132Z,17.70
2022-10-24T00:59:15.214Z,16.92
2022-10-24T01:01:46.239Z,16.85
2022-10-24T01:04:16.889Z,16.70
2022-10-24T01:07:17.560Z,17.50
2022-10-24T01:10:18.800Z,15.93
2022-10-24T01:13:40.379Z,17.10
2022-10-24T01:16:17.313Z,16.48
2022-10-24T01:19:11.408Z,15.85
2022-10-24T01:21:55.778Z,16.30
2022-10-24T01:25:10.209Z,15.50
2022-10-24T01:28:00.181Z,15.93
2022-10-24T01:30:37.670Z,15.60
2022-10-24T01:33:30.165Z,15.88
2022-10-24T01:36:18.249Z,14.57
2022-10-24T01:38:59.576Z,14.20
2022-10-24T01:41:31.278Z,16.55
2022-10-24T01:44:15.136Z,15.05
2022-10-24T01:46:52.102Z,16.10
2022-10-24T01:49:28.715Z,15.40
2022-10-24T01:52:02.452Z,15.35
2022-10-24T01:54:31.870Z,14.90
2022-10-24T01:56:59.367Z,16.10
2022-10-24T01:59:29.278Z,15.57
2022-10-24T02:02:12.243Z,15.13
2022-10-24T02:04:48.435Z,14.73
2022-10-24T02:07:18.558Z,15.40
2022-10-24T02:09:53.598Z,14.95
2022-10-24T02:12:25.614Z,14.68
2022-10-24T02:15:04.592Z,14.88
2022-10-24T02:17:32.362Z,15.77
2022-10-24T02:20:00.706Z,15.85
2022-10-24T02:22:47.849Z,14.80
2022-10-24T02:25:27.950Z,15.50
2022-10-24T02:28:10.342Z,16.27
2022-10-24T02:30:50.493Z,15.43
2022-10-24T02:33:18.882Z,15.65
2022-10-24T02:35:49.136Z,17.08
2022-10-24T02:38:29.016Z,17.63
2022-10-24T02:41:00.193Z,17.30
2022-10-24T02:43:30.542Z,17.50
2022-10-24T02:45:59.514Z,16.83
2022-10-24T02:48:38.918Z,17.30
2022-10-24T02:51:07.576Z,17.58
2022-10-24T02:53:37.286Z,17.83
2022-10-24T02:56:05.154Z,17.80
2022-10-24T02:58:32.507Z,17.77
2022-10-24T03:00:59.947Z,18.67
2022-10-24T03:03:27.300Z,18.80
2022-10-24T03:05:54.549Z,19.50
2022-10-24T03:08:22.046Z,19.63
2022-10-24T03:10:49.292Z,19.30
2022-10-24T03:13:16.832Z,19.35
2022-10-24T03:15:44.333Z,24.10
2022-10-24T03:18:11.821Z,28.93
2022-10-24T03:20:39.133Z,30.73
2022-10-24T03:23:08.317Z,29.95
2022-10-24T03:25:35.836Z,32.20
2022-10-24T03:28:03.369Z,32.75
2022-10-24T03:30:30.596Z,30.20
2022-10-24T03:32:57.915Z,29.55
2022-10-24T03:35:25.285Z,27.48
2022-10-24T03:37:52.502Z,29.70
2022-10-24T03:40:19.983Z,28.20
2022-10-24T03:42:47.670Z,25.00
2022-10-24T03:45:15.861Z,23.30
2022-10-24T03:47:43.230Z,22.45
2022-10-24T03:50:10.451Z,22.60
2022-10-24T03:52:37.698Z,23.83
2022-10-24T03:55:05.558Z,21.63
2022-10-24T03:57:32.978Z,20.77
2022-10-24T04:00:06.757Z,21.48
2022-10-24T04:02:34.295Z,20.73
2022-10-24T04:05:01.760Z,20.98
2022-10-24T04:07:29.241Z,20.63
2022-10-24T04:09:58.126Z,21.73
2022-10-24T04:12:26.663Z,22.05
2022-10-24T04:17:21.121Z,22.20
2022-10-24T04:19:48.721Z,23.67
2022-10-24T04:22:16.700Z,25.27
2022-10-24T04:24:43.955Z,23.85
2022-10-24T04:27:11.270Z,20.67
2022-10-24T04:29:38.493Z,18.42
2022-10-24T04:32:05.981Z,18.20
2022-10-24T04:34:37.078Z,18.85
2022-10-24T04:37:04.986Z,17.40
2022-10-24T04:39:32.374Z,18.70
2022-10-24T04:42:00.024Z,15.52
2022-10-24T04:44:27.608Z,16.98
2022-10-24T04:46:54.838Z,17.27
2022-10-24T04:49:22.088Z,17.27
2022-10-24T04:51:49.409Z,17.60
2022-10-24T04:54:16.784Z,17.48
2022-10-24T04:56:44.035Z,17.63
2022-10-24T04:59:12.640Z,15.55
2022-10-24T05:01:39.908Z,16.60
2022-10-24T05:04:08.471Z,17.02
2022-10-24T05:06:40.296Z,18.25
2022-10-24T05:09:10.079Z,19.15
2022-10-24T05:11:38.427Z,20.83
2022-10-24T05:16:33.533Z,20.40
2022-10-24T05:19:00.861Z,21.65
2022-10-24T05:21:28.469Z,20.88
2022-10-24T05:23:55.950Z,22.43
2022-10-24T05:26:23.297Z,21.58
2022-10-24T05:28:52.535Z,23.42
2022-10-24T05:31:20.564Z,19.77
2022-10-24T05:33:47.929Z,18.80
2022-10-24T05:36:16.308Z,19.08
2022-10-24T05:41:10.990Z,18.52
2022-10-24T05:43:38.594Z,18.30
2022-10-24T05:46:07.475Z,17.23
2022-10-24T05:48:36.261Z,17.35
2022-10-24T05:51:05.966Z,17.45
2022-10-24T05:53:33.196Z,17.17
2022-10-24T05:56:00.515Z,20.10
2022-10-24T05:58:27.848Z,21.02
2022-10-24T06:00:55.255Z,21.50
2022-10-24T06:03:23.624Z,22.60
2022-10-24T06:05:51.551Z,23.13
2022-10-24T06:08:19.180Z,23.40
2022-10-24T06:10:50.134Z,24.35
2022-10-24T06:13:18.494Z,23.88
2022-10-24T06:15:46.046Z,26.42
2022-10-24T06:18:13.423Z,25.08
2022-10-24T06:20:40.999Z,25.37
2022-10-24T06:23:08.386Z,26.35
2022-10-24T06:25:36.082Z,28.35
2022-10-24T06:28:03.585Z,29.15
2022-10-24T06:30:30.964Z,29.30
2022-10-24T06:32:58.297Z,29.17
2022-10-24T06:35:25.572Z,31.48
2022-10-24T06:37:54.103Z,34.97
2022-10-24T06:40:23.138Z,38.45
2022-10-24T06:42:50.746Z,33.92
2022-10-24T06:45:20.859Z,30.48
2022-10-24T06:47:51.807Z,29.10
2022-10-24T06:50:21.539Z,29.67
2022-10-24T06:52:49.206Z,28.77
2022-10-24T06:55:18.078Z,28.57
2022-10-24T06:57:45.620Z,29.23
2022-10-24T07:00:15.195Z,31.35
2022-10-24T07:02:42.753Z,30.60
2022-10-24T07:05:12.830Z,30.57
2022-10-24T07:07:42.589Z,29.67
2022-10-24T07:10:14.331Z,30.52
2022-10-24T07:12:43.558Z,30.80
2022-10-24T07:15:12.459Z,30.90
2022-10-24T07:17:45.242Z,31.00
2022-10-24T07:20:13.903Z,32.33
2022-10-24T07:22:42.156Z,30.63
2022-10-24T07:25:10.141Z,30.00
2022-10-24T07:27:37.566Z,29.98
2022-10-24T07:30:08.066Z,29.30
2022-10-24T07:32:35.741Z,31.77
2022-10-24T07:35:03.124Z,30.67
2022-10-24T07:37:30.570Z,31.92
2022-10-24T07:39:57.921Z,30.63
2022-10-24T07:42:25.394Z,30.30
2022-10-24T07:44:52.630Z,29.75
2022-10-24T07:47:19.864Z,31.33
2022-10-24T07:49:47.157Z,30.80
2022-10-24T07:52:14.678Z,30.10
2022-10-24T07:54:41.979Z,31.20
2022-10-24T07:57:09.245Z,31.38
2022-10-24T07:59:42.079Z,30.48
2022-10-24T08:02:12.915Z,31.38
2022-10-24T08:04:41.111Z,29.45
2022-10-24T08:07:13.681Z,29.65
2022-10-24T08:09:46.173Z,29.10
2022-10-24T08:12:14.139Z,28.50
2022-10-24T08:14:42.448Z,29.35
2022-10-24T08:17:10.778Z,29.38
2022-10-24T08:19:44.063Z,29.67
2022-10-24T08:22:12.415Z,28.75
2022-10-24T08:24:39.820Z,29.10
2022-10-24T08:27:08.687Z,28.17
2022-10-24T08:29:36.682Z,27.63
2022-10-24T08:32:06.810Z,27.88
2022-10-24T08:34:34.756Z,26.77
2022-10-24T08:37:01.973Z,28.05
2022-10-24T08:39:29.340Z,27.65
2022-10-24T08:42:12.850Z,24.88
2022-10-24T08:44:43.946Z,27.40
2022-10-24T08:50:29.386Z,34.50
2022-10-24T08:53:09.380Z,39.00
2022-10-24T08:55:50.004Z,45.13
2022-10-24T08:58:35.692Z,48.35
2022-10-24T09:01:13.358Z,50.58
2022-10-24T09:04:00.312Z,53.70
2022-10-24T09:06:32.125Z,56.25
2022-10-24T09:09:23.381Z,55.40
2022-10-24T09:12:01.936Z,55.15
2022-10-24T09:14:36.887Z,54.85
2022-10-24T09:17:20.435Z,54.78
2022-10-24T09:19:58.153Z,53.42
2022-10-24T09:22:30.626Z,51.10
2022-10-24T09:25:06.478Z,47.70
2022-10-24T09:27:40.377Z,45.95
2022-10-24T09:30:19.403Z,44.90
2022-10-24T09:32:47.372Z,44.08
2022-10-24T09:35:25.872Z,48.72
2022-10-24T09:38:18.983Z,46.47
2022-10-24T09:40:52.758Z,45.33
2022-10-24T09:43:43.574Z,45.08
2022-10-24T09:46:26.600Z,44.30
2022-10-24T09:49:15.339Z,41.72
2022-10-24T09:51:48.159Z,42.65
2022-10-24T09:54:28.030Z,43.40
2022-10-24T09:57:16.816Z,40.58
2022-10-24T09:59:48.157Z,38.35
2022-10-24T10:02:24.408Z,38.58
2022-10-24T10:05:04.204Z,40.45
2022-10-24T10:07:37.232Z,34.83
2022-10-24T10:10:07.200Z,37.67
2022-10-24T10:12:48.313Z,35.67
2022-10-24T10:15:39.743Z,31.13
2022-10-24T10:18:40.189Z,30.33
2022-10-24T10:21:21.508Z,24.83
2022-10-24T10:23:51.637Z,22.23
2022-10-24T10:26:29.465Z,23.73
2022-10-24T10:29:20.908Z,22.85
2022-10-24T10:32:18.308Z,20.40
2022-10-24T10:35:04.763Z,18.27
2022-10-24T10:37:38.930Z,16.70
2022-10-24T10:40:25.949Z,16.58
2022-10-24T10:43:29.884Z,14.90
2022-10-24T10:46:42.533Z,15.45
2022-10-24T10:49:32.630Z,15.25
2022-10-24T10:52:14.593Z,15.02
2022-10-24T10:55:12.194Z,15.82
2022-10-24T10:58:09.827Z,13.80
2022-10-24T11:00:52.513Z,12.60
2022-10-24T11:03:39.630Z,12.50
2022-10-24T11:06:07.374Z,12.95
2022-10-24T11:09:08.254Z,13.47
2022-10-24T11:11:43.486Z,12.95
2022-10-24T11:14:28.727Z,13.50
2022-10-24T11:17:04.620Z,14.43
2022-10-24T11:20:26.219Z,15.82
2022-10-24T11:23:07.497Z,17.58
2022-10-24T11:25:44.946Z,20.60
2022-10-24T11:28:25.788Z,22.35
2022-10-24T11:31:23.387Z,20.85
2022-10-24T11:36:54.964Z,25.00
2022-10-24T12:46:09.391Z,27.95
2022-10-24T12:48:44.812Z,28.60
2022-10-24T12:51:54.386Z,26.60
2022-10-24T12:54:39.750Z,29.65
2022-10-24T12:57:07.024Z,26.45
2022-10-24T13:00:01.533Z,26.30
2022-10-24T13:03:23.112Z,27.48
2022-10-24T13:06:28.945Z,28.98
2022-10-24T13:09:16.501Z,24.83
2022-10-24T13:12:28.692Z,24.85
2022-10-24T13:15:37.817Z,24.15
2022-10-24T13:18:21.056Z,21.38
2022-10-24T13:21:21.457Z,24.25
2022-10-24T13:23:50.635Z,23.17
2022-10-24T13:26:49.809Z,22.35
2022-10-24T13:29:29.234Z,22.95
2022-10-24T13:32:19.967Z,22.88
2022-10-24T13:34:52.431Z,22.45
2022-10-24T13:37:44.692Z,20.90
2022-10-24T13:40:23.664Z,21.70
2022-10-24T13:43:12.781Z,22.63
2022-10-24T13:46:00.195Z,22.10
2022-10-24T13:48:38.064Z,23.30
2022-10-24T13:51:17.854Z,23.35
2022-10-24T13:54:09.379Z,21.67
2022-10-24T13:56:41.099Z,21.98
2022-10-24T13:59:38.969Z,23.33
2022-10-24T14:02:19.412Z,21.73
2022-10-24T14:04:51.169Z,21.38
2022-10-24T14:07:29.145Z,21.55
2022-10-24T14:10:14.784Z,23.25
2022-10-24T14:12:44.933Z,22.67
2022-10-24T14:15:22.349Z,22.25
2022-10-24T14:17:57.744Z,22.85
2022-10-24T14:20:37.060Z,21.75
2022-10-24T14:23:35.448Z,24.55
2022-10-24T14:28:58.801Z,25.25
2022-10-24T14:31:38.177Z,24.02
2022-10-24T14:34:09.717Z,23.55
2022-10-24T14:36:39.703Z,24.13
2022-10-24T14:39:07.714Z,25.73
2022-10-24T14:41:41.055Z,24.30
2022-10-24T14:44:15.939Z,25.55
2022-10-24T14:46:46.745Z,24.13
2022-10-24T14:49:26.440Z,25.13
2022-10-24T14:51:59.714Z,25.13
2022-10-24T14:54:34.974Z,25.35
2022-10-24T14:57:13.702Z,25.60
2022-10-24T15:02:37.554Z,24.10
2022-10-24T15:05:23.641Z,25.15
2022-10-24T15:08:20.308Z,25.65
2022-10-24T15:10:46.323Z,25.77
2022-10-24T15:13:25.395Z,25.20
2022-10-24T15:15:59.718Z,23.98
2022-10-24T15:18:28.774Z,25.20
2022-10-24T15:21:16.139Z,23.20
2022-10-24T15:23:59.277Z,24.67
2022-10-24T15:26:41.009Z,23.77
2022-10-24T15:29:14.413Z,23.80
2022-10-24T15:31:48.342Z,22.20
2022-10-24T15:34:24.077Z,24.33
2022-10-24T15:36:54.650Z,23.20
2022-10-24T15:39:24.917Z,23.27
2022-10-24T15:42:01.171Z,23.50
2022-10-24T15:44:31.025Z,25.02
2022-10-24T15:46:58.388Z,25.63
2022-10-24T15:49:28.006Z,24.85
2022-10-24T15:51:55.717Z,24.33
2022-10-24T15:54:23.512Z,24.35
2022-10-24T15:56:51.059Z,25.13
2022-10-24T15:59:20.209Z,25.88
2022-10-24T16:02:00.651Z,25.15
2022-10-24T16:04:29.188Z,27.13
2022-10-24T16:06:57.532Z,26.48
2022-10-24T16:09:30.214Z,29.63
2022-10-24T16:11:57.996Z,29.23
2022-10-24T16:14:30.416Z,27.52
2022-10-24T16:16:59.141Z,28.38
2022-10-24T16:19:27.342Z,27.38
2022-10-24T16:21:59.894Z,28.92
2022-10-24T16:24:28.689Z,29.33
2022-10-24T16:26:56.344Z,28.08
2022-10-24T16:29:23.772Z,28.63
2022-10-24T16:31:51.635Z,29.42
2022-10-24T16:34:19.218Z,29.77
2022-10-24T16:36:46.679Z,31.53
2022-10-24T16:39:14.677Z,28.80
2022-10-24T16:41:46.261Z,31.13
2022-10-24T16:44:15.029Z,32.60
2022-10-24T16:46:42.282Z,31.83
2022-10-24T16:49:09.694Z,30.35
2022-10-24T16:51:40.517Z,30.80
2022-10-24T16:54:10.644Z,30.52
2022-10-24T16:56:39.155Z,28.65
2022-10-24T16:59:08.371Z,29.60
2022-10-24T17:01:37.956Z,30.20
2022-10-24T17:04:08.289Z,29.63
2022-10-24T17:06:36.453Z,29.23
2022-10-24T17:09:05.220Z,28.58
2022-10-24T17:11:45.036Z,29.15
2022-10-24T17:14:16.045Z,29.17
2022-10-24T17:16:44.618Z,31.60
2022-10-24T17:21:51.030Z,28.90
2022-10-24T17:24:25.554Z,30.38
2022-10-24T17:26:53.688Z,29.42
2022-10-24T17:29:34.861Z,28.63
2022-10-24T17:32:11.929Z,29.17
2022-10-24T17:34:41.366Z,29.75
2022-10-24T17:37:24.618Z,28.02
2022-10-24T17:40:06.076Z,28.90
2022-10-24T17:42:34.582Z,29.33
2022-10-24T17:45:02.197Z,30.13
2022-10-24T17:47:31.751Z,28.23
2022-10-24T17:49:59.244Z,26.70
2022-10-24T17:52:26.895Z,26.03
2022-10-24T17:54:54.225Z,26.25
2022-10-24T17:57:23.928Z,26.52
2022-10-24T17:59:51.403Z,29.77
2022-10-24T18:02:19.046Z,29.60
2022-10-24T18:04:46.552Z,29.92
2022-10-24T18:07:15.058Z,30.95
2022-10-24T18:09:42.621Z,29.10
2022-10-24T18:12:10.491Z,33.88
2022-10-24T18:14:42.253Z,33.13
2022-10-24T18:17:09.698Z,31.15
2022-10-24T18:19:37.092Z,31.42
2022-10-24T18:22:04.422Z,31.95
2022-10-24T18:24:31.759Z,29.13
2022-10-24T18:26:59.174Z,30.20
2022-10-24T18:29:26.527Z,30.88
2022-10-24T18:31:53.911Z,30.08
2022-10-24T18:34:21.409Z,29.00
2022-10-24T18:36:48.699Z,29.88
2022-10-24T18:39:16.192Z,30.83
2022-10-24T18:42:25.618Z,28.52
2022-10-24T18:44:53.345Z,26.90
2022-10-24T18:47:24.730Z,24.27
2022-10-24T18:49:53.700Z,25.00
2022-10-24T18:52:51.288Z,25.00
2022-10-24T18:55:25.311Z,26.15
2022-10-24T18:57:53.129Z,26.70
2022-10-24T19:00:28.625Z,26.30
2022-10-24T19:03:31.501Z,27.92
2022-10-24T19:06:26.869Z,27.63
2022-10-24T19:08:54.436Z,25.33
2022-10-24T19:11:24.199Z,25.87
2022-10-24T19:13:51.849Z,26.25
2022-10-24T19:16:24.688Z,27.35
2022-10-24T19:18:58.587Z,27.63
2022-10-24T19:21:38.522Z,26.63
2022-10-24T19:24:13.861Z,28.65
2022-10-24T19:26:45.546Z,30.20
2022-10-24T19:32:07.296Z,31.95
2022-10-24T19:34:43.152Z,31.27
2022-10-24T19:37:16.334Z,32.78
2022-10-24T19:39:54.430Z,34.28
2022-10-24T19:42:43.538Z,34.67
2022-10-24T19:45:12.382Z,31.42
2022-10-24T19:47:39.846Z,34.47
2022-10-24T19:50:08.314Z,31.58
2022-10-24T19:52:40.279Z,34.28
2022-10-24T19:55:08.064Z,33.40
2022-10-24T19:57:38.044Z,35.05
2022-10-24T20:00:06.410Z,36.58
2022-10-24T20:02:38.116Z,34.92
2022-10-24T20:05:06.216Z,34.42
2022-10-24T20:07:33.731Z,33.60
2022-10-24T20:10:01.239Z,35.65
2022-10-24T20:12:28.477Z,34.80
2022-10-24T20:14:55.912Z,39.33
2022-10-24T20:17:23.276Z,35.80
2022-10-24T20:19:50.792Z,37.70
2022-10-24T20:22:17.996Z,36.72
2022-10-24T20:24:45.334Z,37.45
2022-10-24T20:27:12.574Z,36.90
2022-10-24T20:29:40.091Z,36.00
2022-10-24T20:32:07.395Z,37.65
2022-10-24T20:34:34.700Z,34.75
2022-10-24T20:37:02.125Z,35.92
2022-10-24T20:39:29.468Z,36.30
2022-10-24T20:41:56.808Z,32.88
2022-10-24T20:44:24.247Z,34.92
2022-10-24T20:46:53.259Z,31.90
2022-10-24T20:49:20.616Z,30.98
2022-10-24T20:51:48.103Z,29.15
2022-10-24T20:54:15.831Z,30.10
2022-10-24T20:56:43.375Z,30.60
2022-10-24T20:59:14.731Z,29.33
2022-10-24T21:01:43.689Z,27.40
2022-10-24T21:04:14.659Z,24.38
2022-10-24T21:06:45.603Z,22.10
2022-10-24T21:09:13.102Z,22.92
2022-10-24T21:11:40.397Z,21.33
2022-10-24T21:14:12.707Z,21.55
2022-10-24T21:16:40.130Z,17.98
2022-10-24T21:19:07.608Z,18.33
2022-10-24T21:21:34.965Z,18.63
2022-10-24T21:24:05.787Z,20.08
2022-10-24T21:26:40.078Z,18.10
2022-10-24T21:29:20.916Z,19.23
2022-10-24T21:31:56.241Z,18.33
2022-10-24T21:34:27.811Z,16.08
2022-10-24T21:36:58.726Z,16.45
2022-10-24T21:39:26.045Z,15.40
2022-10-24T21:41:54.194Z,15.45
2022-10-24T21:44:23.465Z,17.60
2022-10-24T21:46:52.051Z,15.68
2022-10-24T21:49:19.631Z,16.98
2022-10-24T21:51:49.376Z,16.45
2022-10-24T21:54:23.695Z,16.85
2022-10-24T21:56:51.474Z,15.85
2022-10-24T21:59:21.910Z,16.77
2022-10-24T22:01:51.944Z,15.57
2022-10-24T22:04:20.654Z,15.38
2022-10-24T22:09:21.267Z,15.45
2022-10-24T22:11:48.744Z,16.38
2022-10-24T22:14:17.790Z,16.42
2022-10-24T22:16:45.913Z,16.55
2022-10-24T22:19:14.041Z,15.45
2022-10-24T22:21:48.325Z,16.13
2022-10-24T22:24:23.200Z,15.32
2022-10-24T22:26:52.038Z,15.93
2022-10-24T22:29:23.432Z,16.38
2022-10-24T22:31:53.214Z,16.73
2022-10-24T22:34:25.490Z,16.83
2022-10-24T22:37:24.716Z,15.80
2022-10-24T22:39:54.331Z,15.40
2022-10-24T22:42:22.237Z,16.95
2022-10-24T22:44:51.055Z,16.40
2022-10-24T22:47:39.068Z,16.55
2022-10-24T22:50:43.655Z,15.05
2022-10-24T22:53:14.706Z,16.45
2022-10-24T22:55:55.342Z,15.85
2022-10-24T22:58:23.111Z,17.65
2022-10-24T23:01:17.219Z,17.48
2022-10-24T23:04:22.937Z,17.65
2022-10-24T23:07:45.949Z,18.83
2022-10-24T23:10:21.436Z,17.17
2022-10-24T23:12:50.054Z,18.85
2022-10-24T23:15:20.453Z,20.00
2022-10-24T23:17:49.035Z,18.00
2022-10-24T23:20:39.344Z,19.55
2022-10-24T23:23:17.061Z,17.50
2022-10-24T23:26:13.995Z,18.75
2022-10-24T23:29:08.075Z,18.88
2022-10-24T23:31:35.955Z,18.13
2022-10-24T23:34:03.769Z,19.20
2022-10-24T23:36:31.467Z,18.48
2022-10-24T23:38:59.263Z,18.03
2022-10-24T23:41:27.096Z,18.23
2022-10-24T23:43:54.972Z,17.10
2022-10-24T23:46:38.095Z,16.25
2022-10-24T23:49:14.313Z,17.75
2022-10-24T23:51:51.229Z,17.33
2022-10-24T23:54:25.948Z,16.80
2022-10-24T23:56:53.795Z,16.23
2022-10-24T23:59:20.979Z,16.15
